KMCC

Mc Clellan Airfield Airport

Sacramento, California, USA
METAR KMCC 250450Z AUTO 15009KT 10SM BKN047 OVC100 14/08 A3001 RMK AO2
Observed Flight Rules
May-25 @ 04:50 UTC (37 minutes ago) Visual Flight Rules
Wind Visibility Clouds
150° at 9 knots 10 miles
  • Broken at 4,700' AGL
  • Overcast at 10,000' AGL
Temperatures Readings
Current 14°C / 57°F
Dewpoint 8°C / 46°F
Humidity 67%
Altimeter 30.01" Hg
Pressure 1016 hPa
Elevation 23
METAR KMCC 250450Z AUTO 15009KT 10SM BKN047 OVC100 14/08 A3001 RMK AO2
Observed Flight Rules
May-25 @ 04:50 UTC
(37 minutes ago)
VFR
Wind Visibility
150° at 9 knots 10 miles
Clouds
  • Broken at 4,700' AGL
  • Overcast at 10,000' AGL
Temperature Dewpoint
14°C / 57°F 8°C / 46°F
Humidity Altimeter Pressure
67% 30.01" Hg 1016 hPa